createdAt,value
2023-03-01T00:06:39.472Z,77509.59
2023-03-01T00:16:43.360Z,77515.66
2023-03-01T00:26:45.623Z,77525.78
2023-03-01T00:36:52.580Z,77521.75
2023-03-01T00:46:56.862Z,77527.81
2023-03-01T00:57:01.245Z,77546.03
2023-03-01T01:07:03.324Z,77544.03
2023-03-01T01:17:06.090Z,77529.84
2023-03-01T01:27:11.500Z,77523.78
2023-03-01T01:37:18.617Z,77519.72
2023-03-01T01:47:25.699Z,77527.81
2023-03-01T01:57:35.977Z,77523.78
2023-03-01T02:07:41.224Z,77527.81
2023-03-01T02:17:45.886Z,77529.84
2023-03-01T02:28:06.741Z,77531.88
2023-03-01T02:38:12.127Z,77517.69
2023-03-01T02:48:15.560Z,77513.66
2023-03-01T02:58:18.957Z,77525.78
2023-03-01T03:08:25.509Z,77499.47
2023-03-01T03:18:29.173Z,77495.44
2023-03-01T03:28:32.941Z,77491.38
2023-03-01T03:38:36.548Z,77479.22
2023-03-01T03:48:41.425Z,77499.47
2023-03-01T03:58:46.772Z,77479.22
2023-03-01T04:09:01.170Z,77477.22
2023-03-01T04:19:07.893Z,77479.22
2023-03-01T04:29:10.081Z,77491.38
2023-03-01T04:39:14.914Z,77475.19
2023-03-01T04:49:19.400Z,77467.09
2023-03-01T04:59:26.665Z,77452.91
2023-03-01T05:09:33.298Z,77463.03
2023-03-01T05:19:43.816Z,77483.28
2023-03-01T05:29:46.009Z,77507.56
2023-03-01T05:39:52.898Z,77507.56
2023-03-01T05:49:57.402Z,77507.56
2023-03-01T05:59:59.571Z,77483.28
2023-03-01T06:10:11.509Z,77434.69
2023-03-01T06:20:22.825Z,77369.91
2023-03-01T06:30:28.468Z,77305.13
2023-03-01T06:40:32.370Z,77216.03
2023-03-01T06:50:39.026Z,77114.81
2023-03-01T07:00:44.662Z,77039.91
2023-03-01T07:10:46.762Z,76952.84
2023-03-01T07:20:53.738Z,76890.09
2023-03-01T07:30:56.306Z,76835.44
2023-03-01T07:41:03.071Z,76754.47
2023-03-01T07:51:06.687Z,76748.38
2023-03-01T08:01:11.231Z,76624.91
2023-03-01T08:11:15.322Z,76592.50
2023-03-01T08:21:19.210Z,76547.97
2023-03-01T08:31:28.719Z,76511.53
2023-03-01T08:41:31.194Z,76537.84
2023-03-01T08:51:37.793Z,76541.91
2023-03-01T09:01:44.396Z,76503.44
2023-03-01T09:11:52.026Z,76483.22
2023-03-01T09:21:57.947Z,76477.13
2023-03-01T09:32:02.597Z,76467.00
2023-03-01T09:42:09.591Z,76505.47
2023-03-01T09:52:22.126Z,76479.16
2023-03-01T10:02:33.043Z,76511.53
2023-03-01T10:12:41.379Z,76503.44
2023-03-01T10:22:52.776Z,76487.25
2023-03-01T10:32:58.487Z,76519.63
2023-03-01T10:43:07.245Z,76491.31
2023-03-01T10:53:35.035Z,76469.03
2023-03-01T11:03:39.679Z,76462.97
2023-03-01T11:14:19.447Z,76446.78
2023-03-01T11:24:38.314Z,76438.69
2023-03-01T11:34:54.722Z,76414.38
2023-03-01T11:45:01.167Z,76424.50
2023-03-01T11:55:08.693Z,76424.50
2023-03-01T12:05:38.897Z,76412.34
2023-03-01T12:15:59.954Z,76359.72
2023-03-01T12:26:05.168Z,76341.50
2023-03-01T12:36:33.100Z,76284.84
2023-03-01T12:46:46.606Z,76240.31
2023-03-01T12:56:53.829Z,76216.03
2023-03-01T13:07:25.976Z,76205.91
2023-03-01T13:17:33.929Z,76189.72
2023-03-01T13:27:36.126Z,76191.72
2023-03-01T13:37:39.139Z,76163.41
2023-03-01T13:47:43.645Z,76175.53
2023-03-01T13:57:54.938Z,76157.31
2023-03-01T14:07:57.166Z,76157.31
2023-03-01T14:18:15.273Z,76175.53
2023-03-01T14:28:21.502Z,76179.59
2023-03-01T14:38:25.331Z,76197.81
2023-03-01T14:48:28.519Z,76207.94
2023-03-01T14:58:35.085Z,76232.22
2023-03-01T15:08:42.075Z,76238.28
2023-03-01T15:18:52.617Z,76264.59
2023-03-01T15:28:59.246Z,76264.59
2023-03-01T15:39:07.382Z,76284.84
2023-03-01T15:49:54.081Z,76315.19
2023-03-01T16:00:01.423Z,76319.25
2023-03-01T16:10:13.267Z,76331.41
2023-03-01T16:20:28.596Z,76363.78
2023-03-01T16:30:37.065Z,76382.00
2023-03-01T16:40:41.896Z,76382.00
2023-03-01T16:50:44.071Z,76398.19
2023-03-01T17:00:46.121Z,76420.47
2023-03-01T17:10:48.215Z,76440.69
2023-03-01T17:20:50.417Z,76471.06
2023-03-01T17:30:57.832Z,76485.22
2023-03-01T17:41:02.434Z,76505.47
2023-03-01T17:51:09.958Z,76503.44
2023-03-01T18:01:17.891Z,76517.63
2023-03-01T18:11:23.982Z,76523.69
2023-03-01T18:21:26.469Z,76523.69
2023-03-01T18:31:33.695Z,76529.75
2023-03-01T18:41:38.606Z,76545.97
2023-03-01T18:51:45.725Z,76560.13
2023-03-01T19:01:47.922Z,76570.25
2023-03-01T19:11:59.523Z,76584.41
2023-03-01T19:22:06.326Z,76620.84
2023-03-01T19:32:10.571Z,76637.03
2023-03-01T19:42:15.853Z,76653.25
2023-03-01T19:52:20.512Z,76665.38
2023-03-01T20:02:28.448Z,76685.63
2023-03-01T20:12:31.284Z,76693.72
2023-03-01T20:22:35.860Z,76705.88
2023-03-01T20:32:41.617Z,76713.97
2023-03-01T20:42:43.824Z,76722.06
2023-03-01T20:52:47.958Z,76724.09
2023-03-01T21:02:53.644Z,76730.16
2023-03-01T21:12:58.217Z,76742.31
2023-03-01T21:23:00.322Z,76754.47
2023-03-01T21:33:04.963Z,76756.47
2023-03-01T21:43:07.121Z,76762.56
2023-03-01T21:53:15.635Z,76768.63
2023-03-01T22:03:17.907Z,76784.81
2023-03-01T22:13:23.138Z,76803.03
2023-03-01T22:23:25.365Z,76799.00
2023-03-01T22:33:27.495Z,76803.03
2023-03-01T22:43:31.294Z,76815.19
2023-03-01T22:53:35.443Z,76829.34
2023-03-01T23:03:42.848Z,76851.63
2023-03-01T23:13:47.924Z,76871.88
2023-03-01T23:23:55.018Z,76892.13
2023-03-01T23:33:57.720Z,76892.13
2023-03-01T23:44:04.316Z,76900.22
2023-03-01T23:54:11.511Z,76914.38
